Time;durP1;ratioP1;P1;durP2;ratioP2;P2;SDS_P1;SDS_P2;PMS_P1;PMS_P2;Temp;Humidity;BMP_temperature;BMP_pressure;BME280_temperature;BME280_humidity;BME280_pressure;Samples;Min_cycle;Max_cycle;Signal;HPM_P1;HPM_P2
2021/04/28 00:01:58;;;;;;;1999.90;999.90;;;;;;;8.62;56.16;-18139.25;4961227;28;20228;-33
2021/04/28 00:04:43;;;;;;;1999.90;999.90;;;;;;;8.54;57.12;-18137.25;4962300;29;20234;-33
2021/04/28 00:07:30;;;;;;;1999.90;999.90;;;;;;;8.51;56.65;-18136.44;4962426;29;20208;-33
2021/04/28 00:10:19;;;;;;;1999.90;999.90;;;;;;;8.44;57.22;-18134.44;4962307;29;20219;-35
2021/04/28 00:13:06;;;;;;;1999.90;999.90;;;;;;;8.41;57.24;-18133.75;4962374;29;20276;-33
2021/04/28 00:15:52;;;;;;;1999.90;999.90;;;;;;;8.40;57.62;-18133.50;4962417;29;20285;-34
2021/04/28 00:18:38;;;;;;;1999.90;999.90;;;;;;;8.36;57.52;-18132.44;4962162;29;20299;-37
2021/04/28 00:21:27;;;;;;;1999.90;999.90;;;;;;;8.36;57.80;-18132.28;4962218;29;20232;-34
2021/04/28 00:24:16;;;;;;;1999.90;999.90;;;;;;;8.31;58.23;-18131.09;4962168;29;20337;-35
2021/04/28 00:27:02;;;;;;;1999.90;999.90;;;;;;;8.34;58.19;-18131.91;4962030;29;20602;-37
2021/04/28 00:29:49;;;;;;;1999.90;999.90;;;;;;;8.23;58.21;-18128.94;4962012;29;20263;-34
2021/04/28 00:32:35;;;;;;;1999.90;999.90;;;;;;;8.23;58.41;-18128.94;4961752;29;20208;-37
2021/04/28 00:35:30;;;;;;;1999.90;999.90;;;;;;;8.16;58.99;-18127.06;4961767;29;20606;-37
2021/04/28 00:38:16;;;;;;;1999.90;999.90;;;;;;;8.12;59.19;-18126.00;4961333;29;20271;-35
2021/04/28 00:41:06;;;;;;;1999.90;999.90;;;;;;;8.10;59.65;-18125.59;4961897;29;20210;-33
2021/04/28 00:43:54;;;;;;;1999.90;999.90;;;;;;;8.07;59.43;-18124.66;4961916;29;20615;-36
2021/04/28 00:46:45;;;;;;;1999.90;999.90;;;;;;;7.95;59.80;-18121.72;4961637;29;20303;-34
2021/04/28 00:49:34;;;;;;;1999.90;999.90;;;;;;;7.91;60.44;-18120.50;4961624;29;20203;-34
2021/04/28 00:52:23;;;;;;;1999.90;999.90;;;;;;;7.92;61.09;-18120.91;4961475;29;20204;-36
2021/04/28 00:55:11;;;;;;;1999.90;999.90;;;;;;;7.81;60.72;-18117.94;4961276;29;20227;-34
2021/04/28 00:58:00;;;;;;;1999.90;999.90;;;;;;;7.82;61.44;-18118.22;4961465;29;20204;-35
2021/04/28 01:00:47;;;;;;;1999.90;999.90;;;;;;;7.85;61.54;-18118.88;4961381;29;20208;-35
2021/04/28 01:03:35;;;;;;;1999.90;999.90;;;;;;;7.77;61.72;-18116.88;4961268;29;20204;-37
2021/04/28 01:06:21;;;;;;;1999.90;999.90;;;;;;;7.72;61.69;-18115.41;4961288;29;20612;-36
2021/04/28 01:09:08;;;;;;;1999.90;999.90;;;;;;;7.69;61.98;-18114.59;4961251;29;20200;-32
2021/04/28 01:11:57;;;;;;;1999.90;999.90;;;;;;;7.70;61.90;-18115.00;4960306;28;20203;-33
2021/04/28 01:14:44;;;;;;;1999.90;999.90;;;;;;;7.65;62.86;-18113.53;4961309;29;20204;-35
2021/04/28 01:17:30;;;;;;;1999.90;999.90;;;;;;;7.69;62.19;-18114.75;4961029;29;20208;-34
2021/04/28 01:20:20;;;;;;;1999.90;999.90;;;;;;;7.66;62.23;-18113.81;4961026;29;20507;-34
2021/04/28 01:23:08;;;;;;;1999.90;999.90;;;;;;;7.61;62.67;-18112.59;4961091;29;20279;-36
2021/04/28 01:25:56;;;;;;;1999.90;999.90;;;;;;;7.53;62.83;-18110.44;4960851;29;20235;-36
2021/04/28 01:28:42;;;;;;;1999.90;999.90;;;;;;;7.58;62.54;-18111.78;4960672;29;20200;-33
2021/04/28 01:31:32;;;;;;;1999.90;999.90;;;;;;;7.62;62.50;-18112.84;4960580;29;20535;-32
2021/04/28 01:34:20;;;;;;;1999.90;999.90;;;;;;;7.59;62.19;-18112.06;4960352;29;20192;-34
2021/04/28 01:37:07;;;;;;;1999.90;999.90;;;;;;;7.58;62.63;-18111.94;4960726;29;20618;-35
2021/04/28 01:39:56;;;;;;;1999.90;999.90;;;;;;;7.55;62.65;-18111.13;4960640;29;20203;-35
2021/04/28 01:42:44;;;;;;;1999.90;999.90;;;;;;;7.54;62.69;-18110.84;4959916;29;20203;-33
2021/04/28 01:45:33;;;;;;;1999.90;999.90;;;;;;;7.53;62.97;-18110.59;4959851;29;20235;-37
2021/04/28 01:48:22;;;;;;;1999.90;999.90;;;;;;;7.58;63.03;-18111.78;4960690;29;20203;-36
2021/04/28 01:51:09;;;;;;;1999.90;999.90;;;;;;;7.57;63.26;-18111.53;4960317;29;20207;-37
2021/04/28 01:53:56;;;;;;;1999.90;999.90;;;;;;;7.61;63.08;-18112.59;4959455;29;20243;-34
2021/04/28 01:56:47;;;;;;;1999.90;999.90;;;;;;;7.59;63.51;-18112.06;4960026;29;20350;-35
2021/04/28 01:59:33;;;;;;;1999.90;999.90;;;;;;;7.59;63.61;-18112.06;4960053;29;20208;-38
2021/04/28 02:02:19;;;;;;;1999.90;999.90;;;;;;;7.66;63.72;-18113.94;4959794;29;20204;-34
2021/04/28 02:05:12;;;;;;;1999.90;999.90;;;;;;;7.66;63.34;-18113.94;4960131;29;20231;-32
2021/04/28 02:08:01;;;;;;;1999.90;999.90;;;;;;;7.61;63.20;-18112.59;4959998;29;20219;-36
2021/04/28 02:10:48;;;;;;;1999.90;999.90;;;;;;;7.55;63.54;-18111.00;4959963;29;20212;-35
2021/04/28 02:13:38;;;;;;;1999.90;999.90;;;;;;;7.63;63.91;-18113.13;4959973;29;20212;-34
2021/04/28 02:16:25;;;;;;;1999.90;999.90;;;;;;;7.55;64.06;-18111.00;4960083;29;20203;-35
2021/04/28 02:19:12;;;;;;;1999.90;999.90;;;;;;;7.52;64.11;-18110.19;4959832;29;20207;-37
2021/04/28 02:21:59;;;;;;;1999.90;999.90;;;;;;;7.62;64.38;-18112.84;4960293;29;20286;-38
2021/04/28 02:24:45;;;;;;;1999.90;999.90;;;;;;;7.53;64.44;-18110.44;4959896;28;20633;-38
2021/04/28 02:27:31;;;;;;;1999.90;999.90;;;;;;;7.48;63.98;-18109.09;4959280;29;20215;-32
2021/04/28 02:30:19;;;;;;;1999.90;999.90;;;;;;;7.53;64.28;-18110.44;4959815;29;20203;-36
2021/04/28 02:33:05;;;;;;;1999.90;999.90;;;;;;;7.46;64.87;-18108.72;4959953;29;20203;-38
2021/04/28 02:35:54;;;;;;;1999.90;999.90;;;;;;;7.41;65.02;-18107.22;4959976;29;20199;-34
2021/04/28 02:38:44;;;;;;;1999.90;999.90;;;;;;;7.40;65.21;-18107.09;4959783;29;20204;-37
2021/04/28 02:41:30;;;;;;;1999.90;999.90;;;;;;;7.47;64.52;-18108.97;4959614;29;20356;-35
2021/04/28 02:44:22;;;;;;;1999.90;999.90;;;;;;;7.47;64.82;-18108.97;4959660;29;20215;-35
2021/04/28 02:47:09;;;;;;;1999.90;999.90;;;;;;;7.38;64.96;-18106.44;4959762;29;20207;-35
2021/04/28 02:49:58;;;;;;;1999.90;999.90;;;;;;;7.39;64.91;-18106.69;4959637;29;20207;-32
2021/04/28 02:52:46;;;;;;;1999.90;999.90;;;;;;;7.41;64.92;-18107.22;4959693;29;20364;-32
2021/04/28 02:55:34;;;;;;;1999.90;999.90;;;;;;;7.50;64.60;-18109.66;4959493;29;20277;-36
2021/04/28 02:58:21;;;;;;;1999.90;999.90;;;;;;;7.87;64.25;-18119.56;4959454;29;20212;-37
2021/04/28 03:01:09;;;;;;;1999.90;999.90;;;;;;;7.57;63.77;-18111.66;4959335;29;20207;-33
2021/04/28 03:03:56;;;;;;;1999.90;999.90;;;;;;;7.49;64.02;-18109.50;4958665;29;20602;-37
2021/04/28 03:06:42;;;;;;;1999.90;999.90;;;;;;;7.43;64.72;-18107.91;4959113;29;20211;-36
2021/04/28 03:09:28;;;;;;;1999.90;999.90;;;;;;;7.59;64.18;-18112.06;4959142;29;20456;-33
2021/04/28 03:12:16;;;;;;;1999.90;999.90;;;;;;;7.45;65.62;-18108.44;4959217;29;20203;-36
2021/04/28 03:15:06;;;;;;;1999.90;999.90;;;;;;;7.46;64.34;-18108.56;4958993;29;20204;-36
2021/04/28 03:17:53;;;;;;;1999.90;999.90;;;;;;;7.36;65.43;-18105.91;4958890;29;20478;-32
2021/04/28 03:20:45;;;;;;;1999.90;999.90;;;;;;;7.58;64.03;-18111.78;4959126;29;20204;-35
2021/04/28 03:23:31;;;;;;;1999.90;999.90;;;;;;;7.41;65.66;-18107.22;4959018;29;20299;-33
2021/04/28 03:26:17;;;;;;;1999.90;999.90;;;;;;;7.04;66.08;-18097.59;4958874;29;20243;-33
2021/04/28 03:29:03;;;;;;;1999.90;999.90;;;;;;;7.23;66.46;-18102.69;4959163;29;20481;-37
2021/04/28 03:31:49;;;;;;;1999.90;999.90;;;;;;;6.76;67.96;-18090.06;4959067;29;20306;-37
2021/04/28 03:34:35;;;;;;;1999.90;999.90;;;;;;;6.88;67.75;-18093.28;4958921;29;20203;-36
2021/04/28 03:37:23;;;;;;;1999.90;999.90;;;;;;;6.80;67.65;-18091.28;4958562;29;20296;-34
2021/04/28 03:40:10;;;;;;;1999.90;999.90;;;;;;;6.67;68.53;-18087.66;4958885;29;20295;-34
2021/04/28 03:42:55;;;;;;;1999.90;999.90;;;;;;;6.63;69.09;-18086.59;4958795;29;20203;-34
2021/04/28 03:45:41;;;;;;;1999.90;999.90;;;;;;;6.76;68.64;-18090.22;4958135;29;20239;-34
2021/04/28 03:48:30;;;;;;;1999.90;999.90;;;;;;;6.51;68.50;-18083.50;4958612;29;20220;-35
2021/04/28 03:51:20;;;;;;;1999.90;999.90;;;;;;;6.65;68.79;-18087.13;4958723;29;20208;-36
2021/04/28 03:54:07;;;;;;;1999.90;999.90;;;;;;;6.60;68.75;-18085.91;4958505;29;20483;-37
2021/04/28 03:56:54;;;;;;;1999.90;999.90;;;;;;;6.44;68.99;-18081.75;4958254;29;20512;-33
2021/04/28 03:59:40;;;;;;;1999.90;999.90;;;;;;;6.43;69.20;-18081.50;4958477;29;20307;-34
2021/04/28 04:02:26;;;;;;;1999.90;999.90;;;;;;;6.38;70.05;-18080.00;4958472;29;20675;-33
2021/04/28 04:05:13;;;;;;;1999.90;999.90;;;;;;;6.44;69.56;-18081.63;4957885;29;20238;-36
2021/04/28 04:07:59;;;;;;;1999.90;999.90;;;;;;;6.38;69.57;-18080.16;4958225;29;20555;-36
2021/04/28 04:10:47;;;;;;;1999.90;999.90;;;;;;;6.45;69.01;-18082.03;4958621;29;20200;-35
2021/04/28 04:13:34;;;;;;;1999.90;999.90;;;;;;;6.49;69.30;-18083.09;4958627;29;20451;-33
2021/04/28 04:16:19;;;;;;;1999.90;999.90;;;;;;;6.60;69.19;-18085.91;4958519;29;20204;-35
2021/04/28 04:19:05;;;;;;;1999.90;999.90;;;;;;;6.46;68.80;-18082.28;4958399;29;20316;-37
2021/04/28 04:21:51;;;;;;;1999.90;999.90;;;;;;;6.49;69.08;-18082.97;4958307;29;20483;-37
2021/04/28 04:24:37;;;;;;;1999.90;999.90;;;;;;;6.52;68.83;-18083.78;4958459;29;20330;-35
2021/04/28 04:27:24;;;;;;;1999.90;999.90;;;;;;;6.51;68.20;-18083.63;4958261;29;20219;-33
2021/04/28 04:30:11;;;;;;;1999.90;999.90;;;;;;;6.52;68.35;-18083.91;4958237;29;20592;-35
2021/04/28 04:32:59;;;;;;;1999.90;999.90;;;;;;;6.63;68.56;-18086.72;4958412;29;20451;-35
2021/04/28 04:35:46;;;;;;;1999.90;999.90;;;;;;;6.68;68.23;-18087.94;4958252;29;20199;-35
2021/04/28 04:38:32;;;;;;;1999.90;999.90;;;;;;;6.79;67.98;-18090.88;4958200;29;20204;-35
2021/04/28 04:41:18;;;;;;;1999.90;999.90;;;;;;;6.71;67.85;-18088.88;4958265;29;20287;-34
2021/04/28 04:44:05;;;;;;;1999.90;999.90;;;;;;;6.73;68.00;-18089.41;4958290;29;20211;-37
2021/04/28 04:46:51;;;;;;;1999.90;999.90;;;;;;;6.70;67.30;-18088.59;4958705;28;20227;-34
2021/04/28 04:49:38;;;;;;;1999.90;999.90;;;;;;;6.72;67.28;-18089.00;4961555;29;20311;-36
2021/04/28 04:52:25;;;;;;;1999.90;999.90;;;;;;;6.78;66.76;-18090.75;4961381;29;20451;-34
2021/04/28 04:55:12;;;;;;;1999.90;999.90;;;;;;;6.81;66.68;-18091.41;4961021;29;20637;-36
2021/04/28 04:57:58;;;;;;;1999.90;999.90;;;;;;;6.84;66.41;-18092.34;4961630;29;20290;-34
2021/04/28 05:00:46;;;;;;;1999.90;999.90;;;;;;;6.81;65.94;-18091.53;4944155;29;20208;-36
2021/04/28 05:03:34;;;;;;;1999.90;999.90;;;;;;;6.93;65.92;-18094.50;4942488;29;20208;-37
2021/04/28 05:06:21;;;;;;;1999.90;999.90;;;;;;;6.94;66.06;-18094.91;4942138;29;20224;-34
2021/04/28 05:09:10;;;;;;;1999.90;999.90;;;;;;;6.93;66.20;-18094.63;4941800;29;20209;-35
2021/04/28 05:11:56;;;;;;;1999.90;999.90;;;;;;;6.94;65.61;-18094.78;4941851;29;20306;-38
2021/04/28 05:14:46;;;;;;;1999.90;999.90;;;;;;;6.97;66.28;-18095.56;4941753;29;20488;-39
2021/04/28 05:17:35;;;;;;;1999.90;999.90;;;;;;;6.97;66.20;-18095.56;4941990;29;20268;-35
2021/04/28 05:20:24;;;;;;;1999.90;999.90;;;;;;;7.14;66.01;-18100.25;4941871;29;20268;-35
2021/04/28 05:23:13;;;;;;;1999.90;999.90;;;;;;;7.10;66.29;-18099.19;4941412;29;20260;-36
2021/04/28 05:25:59;;;;;;;1999.90;999.90;;;;;;;7.39;65.57;-18106.84;4941541;29;20288;-36
2021/04/28 05:28:44;;;;;;;1999.90;999.90;;;;;;;7.47;66.14;-18108.84;4941470;29;20344;-32
2021/04/28 05:31:32;;;;;;;1999.90;999.90;;;;;;;7.40;65.57;-18107.09;4941310;29;20272;-34
2021/04/28 05:34:19;;;;;;;1999.90;999.90;;;;;;;7.48;65.93;-18109.25;4944756;29;20654;-35
2021/04/28 05:37:08;;;;;;;1999.90;999.90;;;;;;;7.59;65.17;-18112.06;4960453;29;20195;-33
2021/04/28 05:39:54;;;;;;;1999.90;999.90;;;;;;;7.67;65.23;-18114.06;4960984;29;20254;-34
2021/04/28 05:42:41;;;;;;;1999.90;999.90;;;;;;;8.02;63.13;-18123.44;4959869;29;20204;-34
2021/04/28 05:45:27;;;;;;;1999.90;999.90;;;;;;;8.62;60.41;-18139.38;4960426;29;20219;-37
2021/04/28 05:48:15;;;;;;;1999.90;999.90;;;;;;;8.82;58.21;-18144.47;4960476;29;20232;-36
2021/04/28 05:51:01;;;;;;;1999.90;999.90;;;;;;;9.17;58.57;-18153.72;4959849;29;20203;-34
2021/04/28 05:53:47;;;;;;;1999.90;999.90;;;;;;;9.30;56.72;-18157.19;4959718;29;20338;-35
2021/04/28 05:56:33;;;;;;;1999.90;999.90;;;;;;;9.42;57.33;-18160.28;4960164;29;20207;-34
2021/04/28 05:59:19;;;;;;;1999.90;999.90;;;;;;;9.68;56.44;-18167.22;4959292;28;20485;-33
2021/04/28 06:02:04;;;;;;;1999.90;999.90;;;;;;;9.59;56.60;-18164.81;4960563;29;20204;-35
2021/04/28 06:04:51;;;;;;;1999.90;999.90;;;;;;;9.89;56.33;-18172.84;4959105;29;20203;-36
2021/04/28 06:07:38;;;;;;;1999.90;999.90;;;;;;;9.89;55.47;-18172.84;4959851;29;20212;-36
2021/04/28 06:10:27;;;;;;;1999.90;999.90;;;;;;;9.69;55.73;-18167.50;4959870;29;20335;-36
2021/04/28 06:13:13;;;;;;;1999.90;999.90;;;;;;;10.21;55.22;-18181.28;4959809;29;20207;-34
2021/04/28 06:16:00;;;;;;;1999.90;999.90;;;;;;;9.93;56.64;-18173.78;4959895;29;20216;-36
2021/04/28 06:18:46;;;;;;;1999.90;999.90;;;;;;;9.81;56.78;-18170.72;4960265;29;20311;-33
2021/04/28 06:21:35;;;;;;;1999.90;999.90;;;;;;;10.65;55.62;-18192.91;4960101;29;20306;-35
2021/04/28 06:24:21;;;;;;;1999.90;999.90;;;;;;;10.86;54.20;-18198.41;4960035;29;20200;-33
2021/04/28 06:27:07;;;;;;;1999.90;999.90;;;;;;;10.59;55.49;-18191.31;4959269;29;20349;-35
2021/04/28 06:29:53;;;;;;;1999.90;999.90;;;;;;;10.74;56.09;-18195.06;4959853;29;20219;-34
2021/04/28 06:32:44;;;;;;;1999.90;999.90;;;;;;;11.01;54.17;-18202.41;4959797;29;20207;-40
2021/04/28 06:35:35;;;;;;;1999.90;999.90;;;;;;;10.93;55.79;-18200.13;4959796;29;20495;-36
2021/04/28 06:38:27;;;;;;;1999.90;999.90;;;;;;;12.79;50.62;-18249.16;4959437;29;20546;-35
2021/04/28 06:41:16;;;;;;;1999.90;999.90;;;;;;;11.14;53.99;-18205.63;4959701;29;20283;-37
2021/04/28 06:44:01;;;;;;;1999.90;999.90;;;;;;;10.93;55.15;-18200.13;4958586;29;20200;-34
2021/04/28 06:46:47;;;;;;;1999.90;999.90;;;;;;;11.32;53.77;-18210.56;4958764;29;20231;-34
2021/04/28 06:49:33;;;;;;;1999.90;999.90;;;;;;;12.49;51.40;-18241.28;4958911;29;20213;-33
2021/04/28 06:52:18;;;;;;;1999.90;999.90;;;;;;;11.85;52.62;-18224.31;4959085;29;20279;-34
2021/04/28 06:55:12;;;;;;;1999.90;999.90;;;;;;;12.41;52.96;-18239.13;4959068;29;20230;-37
2021/04/28 06:58:12;;;;;;;1999.90;999.90;;;;;;;13.16;50.64;-18258.78;4958808;29;20205;-37
2021/04/28 07:01:04;;;;;;;1999.90;999.90;;;;;;;12.74;51.56;-18247.94;4959559;29;20204;-36
2021/04/28 07:03:53;;;;;;;1999.90;999.90;;;;;;;13.65;49.48;-18271.69;4959357;29;20211;-35
2021/04/28 07:06:39;;;;;;;1999.90;999.90;;;;;;;13.01;47.08;-18255.03;4958870;29;20638;-34
2021/04/28 07:09:27;;;;;;;1999.90;999.90;;;;;;;14.22;46.32;-18286.75;4958574;28;20223;-33
2021/04/28 07:12:15;;;;;;;1999.90;999.90;;;;;;;13.61;47.52;-18270.78;4958716;29;20615;-33
2021/04/28 07:15:05;;;;;;;1999.90;999.90;;;;;;;13.87;47.26;-18277.44;4954811;29;20216;-33
2021/04/28 07:17:52;;;;;;;1999.90;999.90;;;;;;;14.23;45.87;-18286.91;4945061;29;20205;-33
2021/04/28 07:20:43;;;;;;;1999.90;999.90;;;;;;;12.65;48.99;-18245.56;4951642;29;20275;-34
2021/04/28 07:23:33;;;;;;;1999.90;999.90;;;;;;;13.25;48.55;-18261.16;4938774;29;20672;-32
2021/04/28 07:26:22;;;;;;;1999.90;999.90;;;;;;;14.37;46.86;-18290.78;4939149;29;20235;-35
2021/04/28 07:29:10;;;;;;;1999.90;999.90;;;;;;;16.02;44.40;-18334.06;4939409;29;20212;-33
2021/04/28 07:32:02;;;;;;;1999.90;999.90;;;;;;;17.14;40.99;-18363.31;4938754;29;20731;-35
2021/04/28 07:34:50;;;;;;;1999.90;999.90;;;;;;;14.33;43.95;-18289.56;4939097;29;20699;-35
2021/04/28 07:37:37;;;;;;;1999.90;999.90;;;;;;;16.12;42.60;-18336.59;4938771;29;20614;-34
2021/04/28 07:40:23;;;;;;;1999.90;999.90;;;;;;;16.67;41.67;-18351.09;4938905;29;20209;-38
2021/04/28 07:43:14;;;;;;;1999.90;999.90;;;;;;;16.19;42.56;-18338.56;4938832;29;20206;-36
2021/04/28 07:46:00;;;;;;;1999.90;999.90;;;;;;;15.22;43.29;-18313.00;4939160;29;20240;-38
2021/04/28 07:48:47;;;;;;;1999.90;999.90;;;;;;;15.88;42.17;-18330.19;4938826;29;20223;-38
2021/04/28 07:51:33;;;;;;;1999.90;999.90;;;;;;;15.97;42.58;-18332.59;4938578;29;20288;-36
2021/04/28 07:54:29;;;;;;;1999.90;999.90;;;;;;;17.85;39.62;-18381.94;4939162;29;20248;-37
2021/04/28 07:57:15;;;;;;;1999.90;999.90;;;;;;;16.53;40.70;-18347.34;4938863;29;20202;-34
2021/04/28 08:00:01;;;;;;;1999.90;999.90;;;;;;;17.90;40.38;-18383.38;4938800;29;20206;-38
2021/04/28 08:02:47;;;;;;;1999.90;999.90;;;;;;;15.27;41.96;-18314.34;4938986;29;20362;-36
2021/04/28 08:05:36;;;;;;;1999.90;999.90;;;;;;;16.58;41.15;-18348.69;4938874;29;20243;-39
2021/04/28 08:08:24;;;;;;;1999.90;999.90;;;;;;;16.77;40.58;-18353.63;4938713;29;20357;-35
2021/04/28 08:11:11;;;;;;;1999.90;999.90;;;;;;;17.40;39.38;-18370.09;4938318;29;20205;-39
2021/04/28 08:13:59;;;;;;;1999.90;999.90;;;;;;;17.67;39.82;-18377.28;4938584;29;20253;-37
2021/04/28 08:16:45;;;;;;;1999.90;999.90;;;;;;;18.56;37.00;-18400.53;4939033;29;20201;-37
2021/04/28 08:19:31;;;;;;;1999.90;999.90;;;;;;;17.42;40.24;-18370.75;4938800;29;20205;-36
2021/04/28 08:22:21;;;;;;;1999.90;999.90;;;;;;;17.99;41.45;-18385.50;4940491;29;20205;-38
2021/04/28 08:25:13;;;;;;;1999.90;999.90;;;;;;;16.62;41.49;-18349.75;4942688;29;20502;-34
2021/04/28 08:28:04;;;;;;;1999.90;999.90;;;;;;;18.60;38.99;-18401.59;4942268;29;20220;-35
2021/04/28 08:30:53;;;;;;;1999.90;999.90;;;;;;;16.61;40.51;-18349.47;4942041;29;20306;-37
2021/04/28 08:33:42;;;;;;;1999.90;999.90;;;;;;;16.43;41.89;-18344.84;4941984;29;20624;-39
2021/04/28 08:36:31;;;;;;;1999.90;999.90;;;;;;;18.54;38.65;-18400.00;4942197;29;20596;-35
2021/04/28 08:39:20;;;;;;;1999.90;999.90;;;;;;;19.67;37.31;-18429.59;4941761;29;20500;-38
2021/04/28 08:42:06;;;;;;;1999.90;999.90;;;;;;;19.85;36.02;-18434.34;4941870;29;20273;-39
2021/04/28 08:44:54;;;;;;;1999.90;999.90;;;;;;;18.39;37.02;-18396.00;4942032;29;20209;-36
2021/04/28 08:47:40;;;;;;;1999.90;999.90;;;;;;;16.98;38.85;-18359.06;4942855;29;20228;-34
2021/04/28 08:50:25;;;;;;;1999.90;999.90;;;;;;;16.65;40.25;-18350.56;4941903;29;20201;-38
2021/04/28 08:53:12;;;;;;;1999.90;999.90;;;;;;;17.72;38.18;-18378.47;4941661;29;20476;-38
2021/04/28 08:56:06;;;;;;;1999.90;999.90;;;;;;;18.72;37.92;-18404.78;4941367;29;20208;-39
2021/04/28 08:58:54;;;;;;;1999.90;999.90;;;;;;;19.85;36.00;-18434.34;4941686;29;20200;-37
2021/04/28 09:01:42;;;;;;;1999.90;999.90;;;;;;;19.84;36.30;-18433.97;4941551;29;20472;-36
2021/04/28 09:04:30;;;;;;;1999.90;999.90;;;;;;;19.09;37.21;-18414.31;4941480;29;20269;-37
2021/04/28 09:07:28;;;;;;;1999.90;999.90;;;;;;;17.30;39.67;-18367.56;4941250;29;20231;-38
2021/04/28 09:10:16;;;;;;;1999.90;999.90;;;;;;;17.89;38.12;-18383.00;4941161;29;20205;-34
2021/04/28 09:13:07;;;;;;;1999.90;999.90;;;;;;;17.55;39.09;-18374.09;4941052;29;20618;-35
2021/04/28 09:16:16;;;;;;;1999.90;999.90;;;;;;;18.40;38.27;-18396.28;4940906;29;20204;-37
2021/04/28 09:19:02;;;;;;;1999.90;999.90;;;;;;;17.61;39.50;-18375.53;4940726;29;20313;-36
2021/04/28 09:21:56;;;;;;;1999.90;999.90;;;;;;;19.21;36.89;-18417.66;4940755;29;20208;-36
2021/04/28 09:24:50;;;;;;;1999.90;999.90;;;;;;;19.24;37.01;-18418.44;4941609;29;20348;-36
2021/04/28 09:27:38;;;;;;;1999.90;999.90;;;;;;;20.14;37.57;-18441.78;4940889;29;20385;-37
2021/04/28 09:30:33;;;;;;;1999.90;999.90;;;;;;;18.20;38.75;-18391.09;4943057;29;20201;-37
2021/04/28 09:33:19;;;;;;;1999.90;999.90;;;;;;;19.93;36.98;-18436.47;4939414;29;20304;-37
2021/04/28 09:36:04;;;;;;;1999.90;999.90;;;;;;;19.36;36.41;-18421.50;4939852;29;20611;-38
2021/04/28 09:38:55;;;;;;;1999.90;999.90;;;;;;;18.58;37.69;-18401.19;4940737;29;20205;-37
2021/04/28 09:41:43;;;;;;;1999.90;999.90;;;;;;;17.43;38.34;-18371.03;4940741;29;20487;-37
2021/04/28 09:44:31;;;;;;;1999.90;999.90;;;;;;;19.45;38.96;-18423.75;4940120;29;20201;-38
2021/04/28 09:47:19;;;;;;;1999.90;999.90;;;;;;;19.33;36.49;-18420.69;4940794;29;20249;-37
2021/04/28 09:50:06;;;;;;;1999.90;999.90;;;;;;;18.70;38.26;-18404.09;4940624;29;20610;-38
2021/04/28 09:52:52;;;;;;;1999.90;999.90;;;;;;;19.57;35.98;-18427.06;4940806;29;20214;-37
2021/04/28 09:55:45;;;;;;;1999.90;999.90;;;;;;;20.87;35.99;-18460.88;4940853;29;20299;-36
2021/04/28 09:58:48;;;;;;;1999.90;999.90;;;;;;;19.54;35.63;-18426.13;4940243;29;20224;-37
2021/04/28 10:01:41;;;;;;;1999.90;999.90;;;;;;;18.72;36.19;-18404.78;4940762;29;20334;-38
2021/04/28 10:04:41;;;;;;;1999.90;999.90;;;;;;;18.80;36.08;-18406.91;4940736;29;20212;-37
2021/04/28 10:07:29;;;;;;;1999.90;999.90;;;;;;;19.03;36.61;-18412.72;4940760;29;20639;-37
2021/04/28 10:10:19;;;;;;;1999.90;999.90;;;;;;;19.14;36.12;-18415.66;4940390;29;20221;-33
2021/04/28 10:13:08;;;;;;;1999.90;999.90;;;;;;;19.31;35.12;-18420.16;4939941;29;20308;-37
2021/04/28 10:15:55;;;;;;;1999.90;999.90;;;;;;;19.27;35.79;-18419.09;4940285;29;20496;-37
2021/04/28 10:18:42;;;;;;;1999.90;999.90;;;;;;;20.51;34.76;-18451.59;4939978;29;20205;-34
2021/04/28 10:21:32;;;;;;;1999.90;999.90;;;;;;;21.23;34.05;-18470.28;4939665;29;20608;-37
2021/04/28 10:24:19;;;;;;;1999.90;999.90;;;;;;;21.89;32.71;-18487.63;4942729;29;20299;-34
2021/04/28 10:27:07;;;;;;;1999.90;999.90;;;;;;;21.02;32.12;-18464.72;4944298;29;20234;-38
2021/04/28 10:29:56;;;;;;;1999.90;999.90;;;;;;;20.23;33.84;-18444.31;4959481;29;20214;-36
2021/04/28 10:32:48;;;;;;;1999.90;999.90;;;;;;;21.88;32.76;-18487.22;4959505;29;20612;-37
2021/04/28 10:35:41;;;;;;;1999.90;999.90;;;;;;;21.89;30.83;-18487.63;4958876;29;20225;-33
2021/04/28 10:38:30;;;;;;;1999.90;999.90;;;;;;;21.72;32.91;-18483.13;4954721;29;20203;-37
2021/04/28 10:41:36;;;;;;;1999.90;999.90;;;;;;;20.75;33.31;-18457.69;4959265;29;20199;-37
2021/04/28 10:44:44;;;;;;;1999.90;999.90;;;;;;;21.72;32.72;-18482.97;4959001;28;20607;-38
2021/04/28 10:47:35;;;;;;;1999.90;999.90;;;;;;;21.13;32.25;-18467.75;4959262;29;20235;-35
2021/04/28 10:50:27;;;;;;;1999.90;999.90;;;;;;;18.89;33.76;-18409.28;4958974;29;20697;-33
2021/04/28 10:53:26;;;;;;;1999.90;999.90;;;;;;;19.75;33.29;-18431.56;4958823;29;20268;-36
2021/04/28 10:56:14;;;;;;;1999.90;999.90;;;;;;;20.11;32.86;-18441.13;4957889;29;20204;-34
2021/04/28 10:59:00;;;;;;;1999.90;999.90;;;;;;;19.71;31.77;-18430.50;4939932;29;20212;-33
2021/04/28 11:02:04;;;;;;;1999.90;999.90;;;;;;;20.78;30.10;-18458.63;4953409;29;20209;-33
2021/04/28 11:05:01;;;;;;;1999.90;999.90;;;;;;;20.52;31.39;-18451.72;4958921;29;20219;-36
2021/04/28 11:07:54;;;;;;;1999.90;999.90;;;;;;;20.22;29.58;-18443.91;4958538;29;20248;-34
2021/04/28 11:10:43;;;;;;;1999.90;999.90;;;;;;;19.68;26.41;-18429.72;4958447;29;20215;-37
2021/04/28 11:13:30;;;;;;;1999.90;999.90;;;;;;;21.71;25.28;-18482.72;4958482;29;20360;-35
2021/04/28 11:16:41;;;;;;;1999.90;999.90;;;;;;;22.37;27.07;-18499.91;4958956;29;20200;-38
2021/04/28 11:19:33;;;;;;;1999.90;999.90;;;;;;;21.03;29.10;-18464.97;4958221;29;20282;-37
2021/04/28 11:22:21;;;;;;;1999.90;999.90;;;;;;;21.98;28.73;-18489.88;4958792;29;20260;-38
2021/04/28 11:25:16;;;;;;;1999.90;999.90;;;;;;;20.60;29.52;-18453.97;4958410;29;20199;-38
2021/04/28 11:28:06;;;;;;;1999.90;999.90;;;;;;;21.08;29.85;-18466.28;4958178;29;20200;-35
2021/04/28 11:30:53;;;;;;;1999.90;999.90;;;;;;;21.66;27.65;-18481.53;4958353;29;20203;-33
2021/04/28 11:33:42;;;;;;;1999.90;999.90;;;;;;;20.85;29.36;-18460.47;4957644;29;20216;-37
2021/04/28 11:36:27;;;;;;;1999.90;999.90;;;;;;;22.22;28.93;-18496.09;4944633;29;20201;-38
2021/04/28 11:39:32;;;;;;;1999.90;999.90;;;;;;;21.10;29.06;-18466.81;4938527;29;20210;-35
2021/04/28 11:42:19;;;;;;;1999.90;999.90;;;;;;;20.95;27.71;-18463.00;4939174;29;20210;-38
2021/04/28 11:45:06;;;;;;;1999.90;999.90;;;;;;;20.42;27.77;-18449.22;4939020;29;20264;-36
2021/04/28 11:47:53;;;;;;;1999.90;999.90;;;;;;;22.03;26.29;-18491.19;4938418;29;20379;-35
2021/04/28 11:50:50;;;;;;;1999.90;999.90;;;;;;;20.78;28.14;-18458.63;4938481;29;20204;-36
2021/04/28 11:53:47;;;;;;;1999.90;999.90;;;;;;;23.14;25.10;-18520.03;4956657;29;20243;-37
2021/04/28 11:56:38;;;;;;;1999.90;999.90;;;;;;;22.26;25.22;-18497.28;4958545;28;20286;-37
2021/04/28 11:59:28;;;;;;;1999.90;999.90;;;;;;;23.38;25.28;-18526.22;4961672;29;20487;-35
2021/04/28 12:02:16;;;;;;;1999.90;999.90;;;;;;;21.82;26.77;-18485.63;4962281;29;20212;-37
2021/04/28 12:05:03;;;;;;;1999.90;999.90;;;;;;;20.35;28.00;-18447.34;4961480;29;20208;-34
2021/04/28 12:07:50;;;;;;;1999.90;999.90;;;;;;;22.23;26.78;-18496.34;4961918;29;20639;-35
2021/04/28 12:10:37;;;;;;;1999.90;999.90;;;;;;;23.10;25.27;-18519.09;4961502;29;20467;-36
2021/04/28 12:13:29;;;;;;;1999.90;999.90;;;;;;;22.87;26.24;-18513.16;4961610;29;20203;-36
2021/04/28 12:16:19;;;;;;;1999.90;999.90;;;;;;;24.02;25.80;-18543.00;4960639;29;20203;-33
2021/04/28 12:19:13;;;;;;;1999.90;999.90;;;;;;;24.91;25.47;-18566.22;4960909;29;20205;-38
2021/04/28 12:22:03;;;;;;;1999.90;999.90;;;;;;;25.36;24.24;-18577.84;4959836;29;20325;-38
2021/04/28 12:24:53;;;;;;;1999.90;999.90;;;;;;;23.58;25.76;-18531.66;4958509;29;20202;-38